Time;durP1;ratioP1;P1;durP2;ratioP2;P2;SDS_P1;SDS_P2;PMS_P1;PMS_P2;Temp;Humidity;BMP_temperature;BMP_pressure;BME280_temperature;BME280_humidity;BME280_pressure;Samples;Min_cycle;Max_cycle;Signal;HPM_P1;HPM_P2
2021/09/18 00:01:07;;;;;;;10.77;8.07;;;;;;;18.44;64.36;98461.38;5052135;28;20033;-49
2021/09/18 00:03:33;;;;;;;5.35;3.40;;;;;;;18.28;64.24;98463.13;5052267;28;20020;-49
2021/09/18 00:05:59;;;;;;;13.00;11.82;;;;;;;17.84;64.70;98460.69;5052134;28;20024;-49
2021/09/18 00:08:24;;;;;;;103.70;95.07;;;;;;;17.45;66.12;98459.00;5052170;28;20230;-49
2021/09/18 00:10:50;;;;;;;14.57;6.72;;;;;;;17.50;66.97;98460.88;5052047;28;20395;-49
2021/09/18 00:13:16;;;;;;;5.38;3.25;;;;;;;17.62;66.99;98460.72;5050720;28;20126;-49
2021/09/18 00:15:42;;;;;;;7.45;3.45;;;;;;;17.59;66.19;98462.03;5050690;28;20032;-49
2021/09/18 00:18:08;;;;;;;15.43;12.95;;;;;;;17.31;66.51;98458.59;5052027;28;20044;-49
2021/09/18 00:20:34;;;;;;;4.50;3.63;;;;;;;17.02;67.12;98462.50;5050321;28;20059;-49
2021/09/18 00:23:00;;;;;;;7.65;3.53;;;;;;;16.90;67.90;98465.28;5051931;28;20072;-49
2021/09/18 00:25:26;;;;;;;13.23;11.50;;;;;;;16.84;68.54;98472.38;5050558;28;20037;-49
2021/09/18 00:27:52;;;;;;;12.45;8.20;;;;;;;16.97;68.35;98466.69;5051843;28;20017;-49
2021/09/18 00:30:18;;;;;;;6.38;3.20;;;;;;;17.01;67.91;98471.50;5051853;28;20031;-49
2021/09/18 00:32:43;;;;;;;10.07;4.30;;;;;;;16.89;68.29;98475.06;5050477;28;20024;-49
2021/09/18 00:35:09;;;;;;;4.10;3.50;;;;;;;16.73;68.68;98470.59;5050452;28;20033;-49
2021/09/18 00:37:35;;;;;;;7.45;3.90;;;;;;;16.47;69.82;98472.91;5051769;28;20029;-49
2021/09/18 00:40:01;;;;;;;35.25;32.45;;;;;;;16.27;70.83;98469.97;5051604;28;20032;-49
2021/09/18 00:42:27;;;;;;;10.05;5.45;;;;;;;16.14;71.24;98473.75;5051552;28;20024;-51
2021/09/18 00:44:53;;;;;;;8.45;4.82;;;;;;;15.98;72.12;98475.38;5051132;28;20386;-51
2021/09/18 00:47:19;;;;;;;4.88;4.10;;;;;;;15.89;72.25;98482.09;5051575;28;20032;-51
2021/09/18 00:49:45;;;;;;;32.25;29.00;;;;;;;15.97;72.07;98477.19;5050311;28;20407;-51
2021/09/18 00:52:17;;;;;;;11.57;4.72;;;;;;;16.04;72.31;98481.56;5051628;28;20021;-51
2021/09/18 00:54:42;;;;;;;11.95;9.80;;;;;;;16.31;71.87;98486.97;5051655;28;20075;-51
2021/09/18 00:57:08;;;;;;;11.25;4.10;;;;;;;16.51;71.22;98486.47;5051618;28;20024;-51
2021/09/18 00:59:34;;;;;;;29.27;26.17;;;;;;;16.66;70.60;98484.03;5050258;28;20442;-51
2021/09/18 01:02:00;;;;;;;12.57;8.80;;;;;;;16.70;69.83;98484.34;5050161;28;20057;-51
2021/09/18 01:04:26;;;;;;;4.38;3.53;;;;;;;16.51;70.02;98483.81;5051551;28;20087;-51
2021/09/18 01:06:51;;;;;;;15.57;3.92;;;;;;;16.27;70.72;98493.81;5051500;28;20025;-51
2021/09/18 01:09:18;;;;;;;7.68;3.88;;;;;;;16.12;70.97;98484.59;5050144;28;20033;-51
2021/09/18 01:11:43;;;;;;;7.18;4.70;;;;;;;15.97;71.37;98486.97;5051431;28;20025;-51
2021/09/18 01:14:09;;;;;;;6.03;4.20;;;;;;;16.10;71.74;98486.69;5051434;28;20028;-51
2021/09/18 01:16:35;;;;;;;9.98;7.35;;;;;;;16.25;71.33;98483.44;5051353;28;20024;-51
2021/09/18 01:19:01;;;;;;;7.30;3.70;;;;;;;16.25;70.96;98485.31;5049831;28;20171;-51
2021/09/18 01:21:26;;;;;;;12.80;11.70;;;;;;;16.10;71.22;98480.59;5049949;28;20114;-51
2021/09/18 01:23:52;;;;;;;8.13;3.67;;;;;;;16.08;71.41;98475.53;5051338;28;20083;-51
2021/09/18 01:26:29;;;;;;;10.20;4.88;;;;;;;16.06;71.70;98477.63;5050003;28;20029;-51
2021/09/18 01:28:55;;;;;;;11.10;5.95;;;;;;;16.14;71.62;98474.56;5051288;28;20151;-51
2021/09/18 01:31:21;;;;;;;42.97;39.00;;;;;;;16.24;71.35;98481.84;5049866;28;20516;-51
2021/09/18 01:33:49;;;;;;;7.03;6.25;;;;;;;16.29;70.95;98481.13;5051239;28;20021;-52
2021/09/18 01:36:15;;;;;;;38.45;34.85;;;;;;;16.18;70.75;98480.97;5051198;28;20510;-51
2021/09/18 01:38:40;;;;;;;7.05;4.47;;;;;;;16.04;71.18;98489.50;5051181;28;20104;-51
2021/09/18 01:41:06;;;;;;;11.93;5.45;;;;;;;15.86;71.71;98479.94;5049711;28;20124;-51
2021/09/18 01:43:32;;;;;;;11.38;7.35;;;;;;;15.64;72.38;98477.94;5051058;28;20052;-52
2021/09/18 01:45:57;;;;;;;7.72;4.40;;;;;;;15.53;73.01;98484.91;5049819;28;20033;-51
2021/09/18 01:48:23;;;;;;;294.65;269.95;;;;;;;15.54;73.44;98475.13;5051102;28;20104;-51
2021/09/18 01:51:00;;;;;;;14.75;11.48;;;;;;;15.68;73.13;98468.50;5049711;28;20029;-51
2021/09/18 01:53:27;;;;;;;10.43;4.85;;;;;;;15.66;72.80;98464.50;5051006;28;20115;-52
2021/09/18 01:55:53;;;;;;;8.68;4.60;;;;;;;15.50;73.11;98469.50;5051515;28;20159;-51
2021/09/18 01:58:19;;;;;;;7.78;4.93;;;;;;;15.35;73.32;98472.69;5054610;28;20104;-51
2021/09/18 02:00:50;;;;;;;6.10;3.92;;;;;;;15.30;73.69;98472.56;5053142;28;20036;-51
2021/09/18 02:03:16;;;;;;;8.35;5.10;;;;;;;15.31;73.99;98476.84;5054537;28;20464;-51
2021/09/18 02:05:42;;;;;;;15.18;5.80;;;;;;;15.49;73.67;98472.38;5054431;28;20115;-52
2021/09/18 02:08:08;;;;;;;10.25;4.22;;;;;;;15.55;73.56;98477.53;5054453;28;20096;-51
2021/09/18 02:10:34;;;;;;;116.45;105.72;;;;;;;15.41;73.48;98478.06;5054289;28;20380;-51
2021/09/18 02:13:01;;;;;;;23.30;19.98;;;;;;;15.32;73.82;98475.00;5054317;28;20013;-51
2021/09/18 02:15:28;;;;;;;11.23;4.88;;;;;;;15.32;74.04;98473.16;5052923;28;20033;-51
2021/09/18 02:17:54;;;;;;;7.85;4.60;;;;;;;15.52;73.61;98480.66;5054122;28;20499;-52
2021/09/18 02:20:23;;;;;;;8.10;4.43;;;;;;;15.74;73.24;98464.13;5053843;28;20041;-51
2021/09/18 02:22:48;;;;;;;11.20;5.70;;;;;;;15.98;72.62;98465.56;5054124;28;20096;-51
2021/09/18 02:25:17;;;;;;;10.10;6.57;;;;;;;15.86;71.87;98456.13;5054083;28;20100;-51
2021/09/18 02:27:44;;;;;;;28.20;25.75;;;;;;;15.59;72.89;98456.69;5054051;28;20028;-51
2021/09/18 02:30:13;;;;;;;8.07;5.55;;;;;;;15.30;73.67;98459.34;5052683;28;20376;-51
2021/09/18 02:32:39;;;;;;;6.82;5.00;;;;;;;15.16;73.98;98460.69;5053972;28;20066;-52
2021/09/18 02:35:09;;;;;;;5.95;4.10;;;;;;;15.15;74.26;98451.13;5052612;28;20092;-51
2021/09/18 02:37:35;;;;;;;16.67;14.85;;;;;;;15.04;74.41;98454.63;5053856;28;20125;-51
2021/09/18 02:40:04;;;;;;;18.67;15.88;;;;;;;15.01;74.71;98455.91;5053771;28;20098;-51
2021/09/18 02:42:31;;;;;;;10.50;6.18;;;;;;;15.20;74.65;98453.88;5052367;28;20029;-51
2021/09/18 02:44:56;;;;;;;10.93;5.03;;;;;;;15.36;74.00;98455.78;5052429;28;20032;-51
2021/09/18 02:47:22;;;;;;;27.95;25.58;;;;;;;15.32;73.63;98452.00;5052356;28;20407;-51
2021/09/18 02:49:48;;;;;;;35.20;31.80;;;;;;;15.16;73.87;98458.03;5053589;28;20033;-51
2021/09/18 02:52:13;;;;;;;12.25;5.95;;;;;;;14.97;74.79;98454.78;5053616;28;20035;-51
2021/09/18 02:54:39;;;;;;;8.05;5.35;;;;;;;14.85;75.19;98446.88;5053526;28;20096;-51
2021/09/18 02:57:05;;;;;;;8.52;5.18;;;;;;;14.76;75.72;98445.63;5053482;28;20086;-51
2021/09/18 02:59:30;;;;;;;6.03;5.32;;;;;;;14.68;75.98;98446.78;5053426;28;20388;-51
2021/09/18 03:01:56;;;;;;;8.05;4.50;;;;;;;14.64;76.09;98450.94;5051951;28;20529;-51
2021/09/18 03:04:23;;;;;;;11.55;5.13;;;;;;;14.67;76.12;98442.56;5053368;28;20082;-51
2021/09/18 03:06:52;;;;;;;8.25;4.97;;;;;;;14.70;75.94;98442.06;5052860;28;20107;-51
2021/09/18 03:09:17;;;;;;;6.38;5.68;;;;;;;14.64;76.11;98450.13;5053250;28;20117;-51
2021/09/18 03:11:43;;;;;;;21.90;19.75;;;;;;;14.56;76.40;98441.53;5051846;28;20112;-51
2021/09/18 03:14:09;;;;;;;8.23;6.40;;;;;;;14.54;76.07;98443.56;5053154;28;20104;-51
2021/09/18 03:16:34;;;;;;;11.52;5.90;;;;;;;14.52;76.51;98437.72;5053096;28;20028;-51
2021/09/18 03:19:00;;;;;;;6.07;4.45;;;;;;;14.52;76.15;98434.28;5051478;28;20067;-52
2021/09/18 03:21:26;;;;;;;11.00;5.57;;;;;;;14.70;76.33;98438.63;5053008;28;20048;-51
2021/09/18 03:23:51;;;;;;;8.10;5.28;;;;;;;14.86;75.90;98435.25;5051632;28;20036;-51
2021/09/18 03:26:17;;;;;;;9.93;8.30;;;;;;;14.86;75.49;98427.34;5052909;28;20045;-52
2021/09/18 03:28:46;;;;;;;8.70;7.38;;;;;;;14.83;75.45;98432.28;5051574;28;20021;-51
2021/09/18 03:31:11;;;;;;;7.05;5.80;;;;;;;14.73;75.62;98427.63;5051519;28;20032;-51
2021/09/18 03:33:38;;;;;;;6.55;5.10;;;;;;;14.71;75.83;98427.06;5051398;28;20025;-52
2021/09/18 03:36:05;;;;;;;7.00;4.95;;;;;;;14.70;75.95;98428.06;5052607;28;20081;-52
2021/09/18 03:38:31;;;;;;;8.50;6.80;;;;;;;14.65;75.81;98427.94;5051372;28;20052;-51
2021/09/18 03:40:57;;;;;;;8.02;5.03;;;;;;;14.62;76.12;98417.88;5051278;28;20041;-51
2021/09/18 03:43:22;;;;;;;8.05;5.22;;;;;;;14.60;76.04;98423.38;5052563;28;20561;-52
2021/09/18 03:45:48;;;;;;;8.52;4.68;;;;;;;14.63;76.12;98428.22;5052511;28;20025;-52
2021/09/18 03:48:14;;;;;;;7.63;5.03;;;;;;;14.75;75.98;98430.81;5051224;28;20035;-52
2021/09/18 03:50:40;;;;;;;10.18;5.68;;;;;;;14.77;75.63;98436.69;5051093;28;20044;-51
2021/09/18 03:53:06;;;;;;;10.95;4.47;;;;;;;14.98;76.43;98436.03;5053008;28;20029;-51
2021/09/18 03:55:31;;;;;;;8.00;4.45;;;;;;;15.65;74.89;98436.41;5052321;28;20024;-51
2021/09/18 03:57:57;;;;;;;4.88;3.63;;;;;;;15.80;73.13;98430.63;5052354;28;20025;-51
2021/09/18 04:00:22;;;;;;;11.25;5.60;;;;;;;15.74;72.87;98438.47;5052212;28;20031;-51
2021/09/18 04:02:48;;;;;;;7.45;4.13;;;;;;;15.69;73.07;98434.91;5052319;28;20025;-51
2021/09/18 04:05:14;;;;;;;6.85;3.63;;;;;;;15.72;73.39;98426.50;5052216;28;20083;-51
2021/09/18 04:07:39;;;;;;;16.52;9.13;;;;;;;16.01;73.08;98426.44;5050860;28;20029;-51
2021/09/18 04:10:05;;;;;;;9.05;6.15;;;;;;;16.40;71.72;98419.31;5050910;28;20388;-52
2021/09/18 04:12:31;;;;;;;5.57;4.72;;;;;;;16.49;70.79;98419.69;5052131;28;20059;-52
2021/09/18 04:14:57;;;;;;;7.03;6.28;;;;;;;16.64;70.50;98429.66;5052117;28;20079;-49
2021/09/18 04:17:22;;;;;;;14.85;11.77;;;;;;;16.92;69.37;98434.03;5052048;28;20029;-49
2021/09/18 04:19:48;;;;;;;5.38;3.22;;;;;;;17.20;68.55;98432.19;5051216;28;20044;-49
2021/09/18 04:22:14;;;;;;;6.18;3.03;;;;;;;17.42;67.59;98427.66;5050566;28;20458;-49
2021/09/18 04:24:39;;;;;;;7.00;3.30;;;;;;;17.52;66.95;98426.94;5050603;28;20517;-49
2021/09/18 04:27:08;;;;;;;14.20;11.40;;;;;;;17.58;66.59;98420.63;5051919;28;20544;-49
2021/09/18 04:29:33;;;;;;;9.70;3.70;;;;;;;17.69;66.01;98429.50;5051858;28;20021;-50
2021/09/18 04:31:59;;;;;;;9.15;2.85;;;;;;;17.74;65.56;98426.88;5051781;28;20032;-49
2021/09/18 04:34:25;;;;;;;10.32;7.15;;;;;;;17.75;65.36;98431.94;5051792;28;20025;-49
2021/09/18 04:36:50;;;;;;;10.27;8.27;;;;;;;17.63;65.11;98438.47;5050463;28;20049;-49
2021/09/18 04:39:18;;;;;;;8.38;3.92;;;;;;;17.40;65.63;98436.91;5050401;28;20025;-49
2021/09/18 04:41:44;;;;;;;9.68;3.72;;;;;;;17.37;66.31;98436.38;5051603;28;20021;-49
2021/09/18 04:44:10;;;;;;;8.13;3.85;;;;;;;17.46;66.90;98433.25;5051700;28;20021;-49
2021/09/18 04:46:35;;;;;;;36.25;32.65;;;;;;;17.48;66.92;98439.91;5050298;28;20115;-49
2021/09/18 04:49:01;;;;;;;8.32;4.72;;;;;;;17.54;67.06;98443.41;5051658;28;20543;-49
2021/09/18 04:51:27;;;;;;;82.78;74.30;;;;;;;17.61;66.76;98449.31;5051607;28;20107;-49
2021/09/18 04:53:52;;;;;;;10.07;6.20;;;;;;;17.66;66.41;98446.69;5051592;28;20056;-49
2021/09/18 04:56:18;;;;;;;886.78;628.15;;;;;;;17.72;65.98;98439.59;5051548;28;20100;-49
2021/09/18 04:58:45;;;;;;;31.05;22.98;;;;;;;17.61;65.45;98444.03;5050235;28;20028;-49
2021/09/18 05:01:11;;;;;;;44.83;40.15;;;;;;;17.21;65.73;98439.13;5051387;28;20017;-49
2021/09/18 05:03:36;;;;;;;42.20;37.65;;;;;;;16.94;66.96;98435.38;5051501;28;20104;-49
2021/09/18 05:06:02;;;;;;;108.43;98.35;;;;;;;17.08;66.96;98442.94;5051529;28;20441;-49
2021/09/18 05:08:27;;;;;;;23.83;21.15;;;;;;;17.25;66.30;98440.22;5051460;28;20444;-50
2021/09/18 05:10:53;;;;;;;11.30;9.18;;;;;;;17.39;65.72;98443.28;5051444;28;20075;-49
2021/09/18 05:13:19;;;;;;;14.65;8.82;;;;;;;17.44;65.31;98444.13;5050104;28;20075;-49
2021/09/18 05:15:44;;;;;;;8.15;6.20;;;;;;;17.46;65.02;98455.28;5050061;28;20096;-49
2021/09/18 05:18:10;;;;;;;7.10;5.20;;;;;;;17.53;64.55;98453.22;5051430;28;20025;-49
2021/09/18 05:20:36;;;;;;;10.57;5.35;;;;;;;17.38;64.51;98445.13;5051087;28;20422;-49
2021/09/18 05:23:01;;;;;;;14.75;11.77;;;;;;;17.02;65.17;98454.53;5051340;28;20025;-49
2021/09/18 05:25:27;;;;;;;8.57;6.05;;;;;;;16.66;65.86;98459.38;5049980;28;20033;-49
2021/09/18 05:27:53;;;;;;;9.70;6.25;;;;;;;16.40;66.65;98461.69;5051242;28;20548;-49
2021/09/18 05:30:18;;;;;;;11.07;8.25;;;;;;;16.33;67.42;98472.44;5052536;28;20032;-49
2021/09/18 05:32:44;;;;;;;9.52;5.85;;;;;;;16.55;66.74;98463.75;5055122;28;20021;-49
2021/09/18 05:35:10;;;;;;;10.32;6.30;;;;;;;16.50;66.58;98464.50;5053725;28;20586;-49
2021/09/18 05:37:36;;;;;;;10.48;4.20;;;;;;;16.52;66.68;98459.75;5055295;28;20044;-49
2021/09/18 05:40:02;;;;;;;17.50;15.23;;;;;;;16.70;66.18;98465.78;5053667;28;20025;-49
2021/09/18 05:42:27;;;;;;;16.55;11.85;;;;;;;17.05;65.36;98470.75;5054851;28;20096;-51
2021/09/18 05:44:53;;;;;;;13.07;9.95;;;;;;;17.53;64.17;98474.47;5054853;28;20476;-52
2021/09/18 05:47:19;;;;;;;6.93;3.80;;;;;;;17.96;62.83;98477.25;5053517;28;20025;-49
2021/09/18 05:49:44;;;;;;;11.05;4.38;;;;;;;18.21;62.20;98479.31;5054806;28;20029;-48
2021/09/18 05:52:10;;;;;;;9.50;4.07;;;;;;;18.66;61.37;98477.97;5054763;28;20032;-49
2021/09/18 05:54:36;;;;;;;33.03;28.00;;;;;;;19.11;59.37;98481.91;5054947;28;20494;-49
2021/09/18 05:57:02;;;;;;;27.70;24.73;;;;;;;18.73;59.57;98481.22;5054696;28;20486;-49
2021/09/18 05:59:28;;;;;;;10.75;4.80;;;;;;;18.10;60.48;98488.25;5054669;28;20522;-49
2021/09/18 06:01:53;;;;;;;9.30;4.80;;;;;;;17.41;62.39;98487.06;5054782;28;20395;-49
2021/09/18 06:04:19;;;;;;;9.55;4.60;;;;;;;17.07;63.52;98491.75;5053244;28;20031;-49
2021/09/18 06:06:48;;;;;;;7.65;6.03;;;;;;;17.18;63.95;98498.75;5053204;28;20499;-49
2021/09/18 06:09:14;;;;;;;13.30;5.07;;;;;;;17.62;63.13;98506.66;5053137;28;20057;-49
2021/09/18 06:11:39;;;;;;;11.15;4.55;;;;;;;17.97;62.26;98505.41;5053084;28;20075;-48
2021/09/18 06:14:05;;;;;;;12.95;5.38;;;;;;;18.22;62.18;98498.69;5054305;28;20036;-49
2021/09/18 06:16:31;;;;;;;8.25;3.80;;;;;;;18.63;61.14;98496.28;5052986;28;20017;-49
2021/09/18 06:18:56;;;;;;;7.20;4.20;;;;;;;19.11;59.90;98497.06;5054006;28;20082;-49
2021/09/18 06:21:22;;;;;;;14.77;4.25;;;;;;;19.54;58.80;98495.88;5054154;28;20506;-49
2021/09/18 06:23:48;;;;;;;6.50;4.25;;;;;;;20.17;57.27;98488.75;5054224;28;20032;-49
2021/09/18 06:26:16;;;;;;;4.63;3.83;;;;;;;20.41;56.04;98492.44;5052746;28;20021;-49
2021/09/18 06:28:43;;;;;;;11.13;4.50;;;;;;;20.43;55.51;98490.31;5054081;28;20391;-49
2021/09/18 06:31:12;;;;;;;12.93;4.63;;;;;;;20.52;56.04;98487.88;5053975;28;20029;-49
2021/09/18 06:33:38;;;;;;;13.18;4.47;;;;;;;21.24;54.63;98493.00;5053970;28;20021;-49
2021/09/18 06:36:04;;;;;;;6.18;3.10;;;;;;;22.09;52.47;98494.59;5054218;28;20036;-49
2021/09/18 06:38:30;;;;;;;5.05;2.53;;;;;;;22.92;50.00;98490.06;5053876;28;20025;-49
2021/09/18 06:40:56;;;;;;;17.85;4.70;;;;;;;23.55;48.26;98496.22;5053656;28;20509;-49
2021/09/18 06:43:24;;;;;;;10.18;3.45;;;;;;;23.83;47.32;98489.13;5051762;28;20027;-49
2021/09/18 06:45:51;;;;;;;11.80;3.35;;;;;;;24.20;46.60;98498.94;5053721;28;20118;-49
2021/09/18 06:48:17;;;;;;;6.03;3.25;;;;;;;24.50;45.30;98500.31;5052359;28;20028;-49
2021/09/18 06:50:43;;;;;;;9.45;3.20;;;;;;;24.48;45.55;98501.69;5053632;28;20506;-49
2021/09/18 06:53:10;;;;;;;9.70;3.20;;;;;;;24.97;44.52;98499.44;5052284;28;20021;-49
2021/09/18 06:55:36;;;;;;;8.02;3.20;;;;;;;25.48;43.48;98501.09;5053523;28;20104;-49
2021/09/18 06:58:03;;;;;;;9.50;2.80;;;;;;;25.95;42.28;98500.84;5053482;28;20056;-49
2021/09/18 07:00:29;;;;;;;10.13;3.75;;;;;;;26.36;41.64;98497.09;5052024;28;20048;-49
2021/09/18 07:02:55;;;;;;;5.78;2.92;;;;;;;26.76;40.82;98503.31;5053462;28;20060;-49
2021/09/18 07:05:21;;;;;;;7.13;3.72;;;;;;;26.82;40.14;98499.41;5053356;28;20107;-50
2021/09/18 07:07:47;;;;;;;9.77;4.25;;;;;;;26.77;40.87;98494.16;5052013;28;20025;-49
2021/09/18 07:10:14;;;;;;;12.95;3.92;;;;;;;27.26;39.77;98494.91;5053236;28;20036;-50
2021/09/18 07:12:41;;;;;;;10.15;4.45;;;;;;;27.76;39.15;98499.06;5053253;28;20025;-49
2021/09/18 07:15:07;;;;;;;5.57;3.40;;;;;;;28.27;37.62;98510.91;5053147;28;20083;-50
2021/09/18 07:17:34;;;;;;;6.97;3.30;;;;;;;28.76;36.81;98510.59;5053151;28;20495;-50
2021/09/18 07:20:00;;;;;;;7.63;4.25;;;;;;;29.28;35.98;98512.25;5052826;28;20041;-50
2021/09/18 07:22:26;;;;;;;10.23;3.78;;;;;;;29.07;36.17;98514.88;5053175;28;20036;-49
2021/09/18 07:24:52;;;;;;;8.93;4.25;;;;;;;28.20;37.34;98510.59;5051774;28;20017;-49
2021/09/18 07:27:19;;;;;;;7.68;4.63;;;;;;;27.69;38.36;98518.41;5052880;28;20028;-50
2021/09/18 07:29:46;;;;;;;7.30;3.90;;;;;;;27.59;38.50;98521.44;5052872;28;20048;-50
2021/09/18 07:32:12;;;;;;;11.32;4.75;;;;;;;27.37;39.41;98525.06;5052823;28;20021;-49
2021/09/18 07:34:39;;;;;;;5.93;4.65;;;;;;;27.06;39.96;98525.13;5052887;28;20048;-50
2021/09/18 07:37:05;;;;;;;10.82;4.40;;;;;;;27.05;40.08;98527.03;5052765;28;20025;-50
2021/09/18 07:39:31;;;;;;;8.55;4.63;;;;;;;26.99;40.38;98522.09;5052727;28;20021;-50
2021/09/18 07:41:58;;;;;;;10.65;4.32;;;;;;;26.40;41.21;98525.00;5051251;28;20028;-50
2021/09/18 07:44:24;;;;;;;10.68;5.18;;;;;;;26.08;42.35;98521.50;5052590;28;20032;-49
2021/09/18 07:46:50;;;;;;;12.60;4.65;;;;;;;26.23;42.17;98523.00;5052570;28;20032;-49
2021/09/18 07:49:17;;;;;;;11.07;4.50;;;;;;;26.77;41.62;98523.78;5052515;28;20060;-50
2021/09/18 07:51:46;;;;;;;7.05;4.65;;;;;;;27.93;39.33;98527.16;5051189;28;20074;-49
2021/09/18 07:54:12;;;;;;;10.98;5.40;;;;;;;29.15;37.43;98522.16;5051128;28;20029;-49
2021/09/18 07:56:38;;;;;;;13.13;5.53;;;;;;;30.15;35.81;98516.16;5052385;28;20024;-50
2021/09/18 07:59:04;;;;;;;6.50;5.30;;;;;;;30.85;34.80;98513.44;5052273;28;20036;-49
2021/09/18 08:01:30;;;;;;;8.95;4.82;;;;;;;31.50;33.97;98510.00;5051248;28;20025;-49
2021/09/18 08:04:16;;;;;;;11.93;5.60;;;;;;;32.21;33.16;98505.75;5052313;28;20037;-50
2021/09/18 08:06:42;;;;;;;9.35;5.13;;;;;;;32.35;32.55;98508.84;5052045;28;20045;-50
2021/09/18 08:09:08;;;;;;;17.40;7.57;;;;;;;32.35;32.02;98506.13;5052210;28;20078;-49
2021/09/18 08:11:34;;;;;;;7.22;4.63;;;;;;;32.25;32.74;98507.41;5052089;28;20025;-50
2021/09/18 08:14:02;;;;;;;6.38;5.25;;;;;;;32.57;31.76;98520.28;5052065;28;20409;-48
2021/09/18 08:16:29;;;;;;;12.65;5.80;;;;;;;32.94;31.31;98518.06;5052219;28;20466;-48
2021/09/18 08:18:58;;;;;;;11.20;6.10;;;;;;;33.31;30.86;98517.72;5052050;28;20037;-48
2021/09/18 08:21:24;;;;;;;7.72;5.00;;;;;;;32.96;31.29;98520.41;5052035;28;20033;-48
2021/09/18 08:23:51;;;;;;;12.60;5.35;;;;;;;31.96;32.99;98519.44;5050692;28;20521;-48
2021/09/18 08:26:17;;;;;;;8.90;5.47;;;;;;;31.26;33.99;98517.81;5050592;28;20029;-50
2021/09/18 08:28:42;;;;;;;11.75;5.30;;;;;;;31.71;33.55;98507.09;5051879;28;20033;-50
2021/09/18 08:31:08;;;;;;;6.78;4.57;;;;;;;32.69;31.90;98513.97;5051833;28;20017;-49
2021/09/18 08:33:35;;;;;;;6.43;3.90;;;;;;;33.58;30.60;98507.00;5050504;28;20037;-48
2021/09/18 08:36:01;;;;;;;7.63;4.30;;;;;;;33.93;29.90;98514.31;5050487;28;20029;-48
2021/09/18 08:38:26;;;;;;;6.43;4.45;;;;;;;33.51;30.97;98506.84;5051769;28;20035;-48
2021/09/18 08:40:56;;;;;;;8.50;4.10;;;;;;;33.20;30.62;98508.53;5050332;28;20032;-47
2021/09/18 08:43:22;;;;;;;7.63;4.82;;;;;;;33.79;29.66;98507.44;5051715;28;20053;-47
2021/09/18 08:45:48;;;;;;;6.65;4.45;;;;;;;34.15;29.67;98501.91;5051678;28;20060;-48
2021/09/18 08:48:16;;;;;;;6.55;4.65;;;;;;;34.61;28.60;98510.06;5051632;28;20030;-48
2021/09/18 08:50:44;;;;;;;6.40;4.35;;;;;;;35.21;28.25;98506.69;5051630;28;20022;-50
2021/09/18 08:53:10;;;;;;;11.18;4.85;;;;;;;35.55;27.51;98504.78;5051616;28;20376;-49
2021/09/18 08:55:35;;;;;;;5.80;4.38;;;;;;;35.23;27.74;98511.78;5051623;28;20052;-50
2021/09/18 08:58:02;;;;;;;5.18;4.40;;;;;;;34.81;28.31;98508.06;5051597;28;20140;-50
2021/09/18 09:00:31;;;;;;;14.50;4.53;;;;;;;34.26;29.35;98513.75;5051735;28;20407;-50
2021/09/18 09:02:57;;;;;;;8.02;4.05;;;;;;;34.64;28.76;98517.50;5050179;28;20025;-50
2021/09/18 09:05:29;;;;;;;6.13;4.07;;;;;;;34.98;28.64;98506.75;5052967;28;20033;-50
2021/09/18 09:08:06;;;;;;;6.65;4.35;;;;;;;35.42;28.73;98503.47;5055618;28;20135;-50
2021/09/18 09:10:31;;;;;;;6.03;3.63;;;;;;;35.70;27.73;98497.59;5054177;28;20036;-50
2021/09/18 09:13:16;;;;;;;8.15;4.18;;;;;;;34.61;29.02;98504.59;5055463;28;20029;-50
2021/09/18 09:15:43;;;;;;;7.95;4.45;;;;;;;34.55;29.23;98509.59;5055398;28;20491;-50
2021/09/18 09:18:26;;;;;;;6.00;4.18;;;;;;;35.19;28.60;98504.38;5055427;28;20021;-50
2021/09/18 09:21:12;;;;;;;9.52;3.97;;;;;;;35.53;27.94;98512.56;5055162;28;20482;-50
2021/09/18 09:23:38;;;;;;;8.02;3.85;;;;;;;35.54;27.95;98507.91;5055339;28;20063;-50
2021/09/18 09:26:04;;;;;;;5.18;3.50;;;;;;;35.80;27.22;98507.84;5053934;28;20503;-50
2021/09/18 09:28:37;;;;;;;7.95;3.65;;;;;;;35.81;26.81;98503.16;5055456;28;20547;-50
2021/09/18 09:31:17;;;;;;;7.88;3.20;;;;;;;35.08;28.25;98506.13;5055164;28;20021;-50
2021/09/18 09:34:16;;;;;;;4.15;3.35;;;;;;;35.47;27.57;98507.81;5055202;28;20407;-50
2021/09/18 09:36:52;;;;;;;6.57;3.20;;;;;;;35.65;27.06;98508.03;5042897;28;20043;-50
2021/09/18 09:39:21;;;;;;;7.85;3.30;;;;;;;35.81;26.41;98503.16;5055054;28;20033;-50
2021/09/18 09:41:55;;;;;;;6.15;3.10;;;;;;;35.96;26.00;98499.44;5054908;28;20024;-50
2021/09/18 09:44:22;;;;;;;;;;;;;;;36.07;27.32;98491.34;5055339;28;20035;-51
2021/09/18 09:47:08;;;;;;;5.45;2.60;;;;;;;36.52;25.69;98496.81;5055132;28;19912;-50
2021/09/18 09:49:47;;;;;;;9.10;3.20;;;;;;;36.82;25.42;98491.19;5054910;28;20021;-49
2021/09/18 09:52:25;;;;;;;6.13;3.05;;;;;;;37.18;24.45;98494.94;5054851;28;20078;-50
2021/09/18 09:54:55;;;;;;;5.22;3.10;;;;;;;37.35;24.43;98498.94;5054827;28;20017;-50
2021/09/18 09:57:21;;;;;;;3.78;3.10;;;;;;;37.57;24.60;98494.34;5054585;28;20483;-50
2021/09/18 09:59:47;;;;;;;4.57;2.75;;;;;;;37.55;24.58;98491.22;5054656;28;20052;-51
2021/09/18 10:02:14;;;;;;;6.88;3.03;;;;;;;37.96;23.84;98490.94;5054557;28;20090;-50
2021/09/18 10:04:41;;;;;;;5.40;3.03;;;;;;;38.33;23.57;98486.28;5054599;28;20383;-50
2021/09/18 10:07:11;;;;;;;8.30;3.50;;;;;;;38.21;24.55;98479.25;5054449;28;20503;-50
2021/09/18 10:09:38;;;;;;;4.13;2.65;;;;;;;38.28;24.22;98483.97;5054527;28;20021;-51
2021/09/18 10:12:04;;;;;;;5.80;2.90;;;;;;;38.68;23.56;98465.56;5054366;28;20032;-51
2021/09/18 10:14:31;;;;;;;4.22;2.45;;;;;;;38.94;22.74;98473.31;5054346;28;20422;-50
2021/09/18 10:16:58;;;;;;;2.80;2.50;;;;;;;38.80;23.17;98473.38;5053076;28;20025;-49
2021/09/18 10:19:52;;;;;;;3.95;2.60;;;;;;;38.91;23.53;98460.38;5053946;28;20045;-49
2021/09/18 10:25:21;;;;;;;2.72;2.15;;;;;;;38.73;23.63;98457.69;5054395;28;20055;-50
2021/09/18 10:28:14;;;;;;;3.38;2.20;;;;;;;38.79;23.22;98451.81;5054006;28;20029;-49
2021/09/18 10:30:51;;;;;;;6.65;2.10;;;;;;;38.97;22.28;98444.31;5054104;28;20542;-50
2021/09/18 10:33:40;;;;;;;5.07;2.60;;;;;;;39.21;22.50;98439.16;5052780;28;20025;-50
2021/09/18 10:36:09;;;;;;;3.90;2.22;;;;;;;39.04;22.83;98441.56;5053905;28;20033;-50
2021/09/18 10:38:38;;;;;;;5.97;2.42;;;;;;;38.81;22.96;98433.75;5053978;28;20104;-50
2021/09/18 10:41:14;;;;;;;4.93;2.28;;;;;;;38.86;22.84;98435.31;5053819;28;20033;-50
2021/09/18 10:43:52;;;;;;;4.90;2.30;;;;;;;38.31;23.03;98437.34;5052622;28;20120;-49
2021/09/18 10:46:56;;;;;;;5.85;2.22;;;;;;;37.70;25.16;98434.53;5053868;28;20036;-50
2021/09/18 10:49:35;;;;;;;2.77;1.93;;;;;;;37.57;24.55;98425.88;5053763;28;20399;-50
2021/09/18 10:52:28;;;;;;;5.32;2.13;;;;;;;37.43;24.87;98423.13;5053552;28;20256;-50
2021/09/18 10:54:59;;;;;;;4.22;2.08;;;;;;;37.23;25.13;98435.53;5053628;28;20027;-50
2021/09/18 10:57:25;;;;;;;1.70;1.42;;;;;;;37.43;24.19;98430.53;5053621;28;20029;-50
2021/09/18 10:59:52;;;;;;;1.52;1.40;;;;;;;37.90;22.49;98429.47;5053818;28;20040;-50
2021/09/18 11:02:29;;;;;;;2.42;1.35;;;;;;;38.34;22.53;98414.63;5053360;28;20402;-50
2021/09/18 11:04:56;;;;;;;1.75;1.42;;;;;;;38.54;21.99;98415.03;5053675;28;20024;-50
2021/09/18 11:07:40;;;;;;;1.67;1.38;;;;;;;38.69;21.81;98417.72;5053353;28;20052;-49
2021/09/18 11:10:06;;;;;;;2.95;1.33;;;;;;;38.66;21.62;98413.06;5053541;28;20442;-49
2021/09/18 11:12:32;;;;;;;7.28;1.70;;;;;;;38.65;21.81;98412.25;5053274;28;20466;-49
2021/09/18 11:15:05;;;;;;;4.20;1.70;;;;;;;38.70;22.07;98414.59;5051907;28;20078;-49
2021/09/18 11:17:39;;;;;;;2.20;1.48;;;;;;;38.65;21.99;98419.69;5053207;28;20078;-50
2021/09/18 11:20:15;;;;;;;2.42;1.70;;;;;;;38.82;21.92;98410.66;5052549;28;20048;-50
2021/09/18 11:22:41;;;;;;;2.80;1.50;;;;;;;38.57;21.92;98416.19;5052946;28;20107;-50
2021/09/18 11:25:46;;;;;;;5.00;1.52;;;;;;;38.43;22.14;98407.97;5053018;28;20032;-50
2021/09/18 11:28:16;;;;;;;3.05;1.60;;;;;;;38.29;21.77;98403.28;5041524;28;20060;-50
2021/09/18 11:30:44;;;;;;;1.63;1.25;;;;;;;37.79;22.18;98395.81;5052898;28;20029;-50
2021/09/18 11:33:12;;;;;;;2.63;1.65;;;;;;;36.86;23.14;98393.53;5052858;28;20037;-51
2021/09/18 11:35:39;;;;;;;3.67;1.20;;;;;;;36.24;24.47;98394.34;5052821;28;20414;-50